Time;durP1;ratioP1;P1;durP2;ratioP2;P2;SDS_P1;SDS_P2;PMS_P1;PMS_P2;Temp;Humidity;BMP_temperature;BMP_pressure;BME280_temperature;BME280_humidity;BME280_pressure;Samples;Min_cycle;Max_cycle;Signal;HPM_P1;HPM_P2
2023/03/30 00:05:32;;;;;;;5.53;3.00;;;;;;;6.64;42.01;100060.38;5104938;28;20207;-48
2023/03/30 00:11:33;;;;;;;3.70;3.07;;;;;;;6.60;42.49;100065.53;5102364;28;20583;-49
2023/03/30 00:17:31;;;;;;;5.70;3.77;;;;;;;6.42;42.71;100057.03;5103432;28;20721;-48
2023/03/30 00:20:26;;;;;;;5.80;4.50;;;;;;;6.38;43.12;100060.47;5104476;28;20573;-49
2023/03/30 00:23:29;;;;;;;;;;;;;;;;;;;;;
2023/03/30 00:26:25;;;;;;;4.37;3.90;;;;;;;6.38;42.82;100057.88;5103223;28;20190;-49
2023/03/30 00:29:20;;;;;;;4.77;4.10;;;;;;;6.28;43.31;100056.19;5103204;28;20225;-49
2023/03/30 00:32:22;;;;;;;4.70;3.67;;;;;;;6.27;43.47;100059.63;5105497;28;20676;-49
2023/03/30 00:35:32;;;;;;;6.10;3.53;;;;;;;6.15;43.66;100057.09;5105300;28;20681;-48
2023/03/30 00:38:24;;;;;;;5.17;4.03;;;;;;;6.15;43.99;100050.22;5103687;28;20197;-50
2023/03/30 00:41:31;;;;;;;4.90;3.93;;;;;;;6.18;43.80;100049.34;5102846;28;20198;-48
2023/03/30 00:44:32;;;;;;;5.47;4.50;;;;;;;5.96;44.78;100047.69;5104314;28;20194;-50
2023/03/30 00:50:36;;;;;;;8.40;5.10;;;;;;;5.80;45.38;100047.66;5103552;28;20748;-48
2023/03/30 00:53:25;;;;;;;7.87;5.90;;;;;;;5.95;45.24;100036.53;5104573;28;20684;-49
2023/03/30 00:56:25;;;;;;;9.13;6.57;;;;;;;5.99;45.62;100040.78;5103197;28;20191;-48
2023/03/30 01:06:05;;;;;;;8.53;5.03;;;;;;;6.03;45.36;100051.97;5104218;28;20611;-48
2023/03/30 01:09:00;;;;;;;6.57;4.47;;;;;;;6.01;45.34;100054.53;5102786;28;20190;-48
2023/03/30 01:12:04;;;;;;;7.07;4.87;;;;;;;6.06;45.00;100044.22;5105303;28;20234;-49
2023/03/30 01:24:52;;;;;;;4.67;3.80;;;;;;;6.09;44.43;100045.09;5101792;28;20710;-48
2023/03/30 01:28:11;;;;;;;5.17;3.30;;;;;;;5.91;45.29;100047.69;5103723;28;20197;-48
2023/03/30 01:41:38;;;;;;;3.57;2.83;;;;;;;5.84;45.85;100041.66;5103678;28;20588;-52
2023/03/30 01:44:26;;;;;;;3.63;3.33;;;;;;;5.84;45.86;100051.97;5104110;28;20720;-51
2023/03/30 01:50:50;;;;;;;4.33;3.73;;;;;;;5.72;45.86;100062.28;5102798;28;20218;-47
2023/03/30 01:57:20;;;;;;;6.27;3.57;;;;;;;5.59;46.57;100054.56;5109384;28;20203;-48
2023/03/30 02:00:35;;;;;;;6.83;3.37;;;;;;;5.56;46.73;100050.25;5109073;28;20281;-49
2023/03/30 02:09:31;;;;;;;4.53;3.50;;;;;;;5.54;46.68;100051.97;5107518;28;20201;-52
2023/03/30 02:12:35;;;;;;;6.70;3.60;;;;;;;5.52;46.61;100058.00;5106680;28;20722;-52
2023/03/30 02:19:00;;;;;;;4.03;3.53;;;;;;;5.60;47.13;100058.84;5105101;28;20205;-49
2023/03/30 02:22:25;;;;;;;7.93;4.10;;;;;;;5.53;47.09;100052.81;5108288;28;20197;-49
2023/03/30 02:25:36;;;;;;;7.93;4.90;;;;;;;5.55;47.39;100051.09;5105931;28;20577;-48
2023/03/30 02:28:45;;;;;;;6.33;4.37;;;;;;;5.60;47.06;100056.28;5107276;28;20195;-48
2023/03/30 02:34:54;;;;;;;8.97;5.90;;;;;;;5.42;48.12;100060.53;5108567;28;20251;-47
2023/03/30 02:41:41;;;;;;;7.47;5.33;;;;;;;5.27;49.27;100063.13;5103555;28;20195;-48
2023/03/30 02:44:31;;;;;;;6.87;5.37;;;;;;;5.39;49.24;100062.28;5107497;28;20187;-48
2023/03/30 02:53:57;;;;;;;7.87;4.53;;;;;;;5.24;50.47;100075.13;5103450;28;20205;-48
2023/03/30 02:57:12;;;;;;;7.87;5.13;;;;;;;5.14;50.86;100081.97;5110402;28;20760;-48
2023/03/30 03:00:07;;;;;;;7.27;4.90;;;;;;;5.18;51.07;100083.69;5105383;28;20194;-48
2023/03/30 03:03:03;;;;;;;7.47;4.77;;;;;;;5.21;51.11;100082.81;5080184;28;20231;-48
2023/03/30 03:08:38;;;;;;;6.73;4.57;;;;;;;4.99;51.72;100080.19;5079122;28;20200;-52
2023/03/30 03:11:16;;;;;;;7.33;4.60;;;;;;;4.94;52.02;100076.78;5079413;28;20768;-54
2023/03/30 03:14:13;;;;;;;8.73;5.03;;;;;;;4.93;52.32;100077.63;5078843;28;20216;-53
2023/03/30 03:17:02;;;;;;;8.23;4.83;;;;;;;4.88;52.72;100074.16;5078287;28;20192;-52
2023/03/30 03:19:35;;;;;;;7.53;4.73;;;;;;;4.68;53.06;100056.09;5077969;28;20200;-51
2023/03/30 03:22:06;;;;;;;7.83;4.93;;;;;;;4.62;53.52;100075.81;5079804;28;20612;-51
2023/03/30 03:24:41;;;;;;;11.83;5.03;;;;;;;4.55;53.85;100077.47;5076593;28;20210;-53
2023/03/30 03:27:20;;;;;;;8.30;4.57;;;;;;;4.56;54.05;100076.63;5079159;28;20282;-52
2023/03/30 03:30:09;;;;;;;11.77;5.27;;;;;;;4.57;54.22;100068.06;5078651;28;20254;-52
2023/03/30 03:32:42;;;;;;;6.40;4.70;;;;;;;4.62;55.04;100081.81;5077515;28;20271;-53
2023/03/30 03:35:14;;;;;;;13.23;5.87;;;;;;;4.57;55.82;100083.50;5081076;28;20187;-54
2023/03/30 03:37:58;;;;;;;9.10;5.33;;;;;;;4.68;54.74;100086.97;5079250;28;20189;-50
2023/03/30 03:40:37;;;;;;;5.63;4.93;;;;;;;4.71;54.45;100093.84;5081006;28;20235;-51
2023/03/30 03:43:10;;;;;;;14.40;5.93;;;;;;;4.80;55.32;100100.72;5079718;28;20227;-52
2023/03/30 03:45:47;;;;;;;7.43;5.67;;;;;;;4.88;54.76;100104.16;5077502;28;20200;-53
2023/03/30 03:48:26;;;;;;;9.13;6.37;;;;;;;4.93;54.69;100110.22;5077618;28;20281;-51
2023/03/30 03:51:11;;;;;;;30.90;8.50;;;;;;;4.83;55.09;100116.16;5082917;28;20657;-52
2023/03/30 03:54:11;;;;;;;21.10;9.47;;;;;;;4.75;55.34;100116.13;5073049;28;20199;-53
2023/03/30 04:00:25;;;;;;;50.43;16.30;;;;;;;4.65;55.49;100124.66;5065215;28;20208;-54
2023/03/30 04:03:31;;;;;;;84.17;31.03;;;;;;;4.59;55.48;100122.94;5110841;28;20230;-51
2023/03/30 04:06:31;;;;;;;116.70;41.57;;;;;;;4.49;55.28;100121.16;5111148;28;20191;-52
2023/03/30 04:09:11;;;;;;;156.30;47.73;;;;;;;4.29;58.25;100120.16;5099384;28;20226;-49
2023/03/30 04:12:05;;;;;;;156.33;49.73;;;;;;;4.21;56.56;100125.25;5109539;28;20245;-51
2023/03/30 04:14:55;;;;;;;241.23;78.30;;;;;;;4.22;56.84;100124.41;5108559;28;20312;-49
2023/03/30 04:17:52;;;;;;;258.53;87.40;;;;;;;4.18;56.27;100126.94;5108887;28;20228;-48
2023/03/30 04:20:30;;;;;;;243.87;75.37;;;;;;;4.13;55.71;100108.94;5108893;28;20217;-51
2023/03/30 04:23:08;;;;;;;242.73;81.17;;;;;;;4.29;54.94;100126.16;5109100;28;20770;-48
2023/03/30 04:25:40;;;;;;;241.30;79.43;;;;;;;4.38;54.96;100122.81;5108897;28;20614;-48
2023/03/30 04:28:28;;;;;;;223.27;74.57;;;;;;;4.45;55.12;100134.84;5108994;28;20256;-50
2023/03/30 04:31:02;;;;;;;213.40;70.07;;;;;;;4.61;54.83;100135.78;5108018;28;20733;-48
2023/03/30 04:33:33;;;;;;;180.37;61.47;;;;;;;4.64;54.81;100134.06;5107224;28;20690;-48
2023/03/30 04:36:30;;;;;;;;;;;;;;;;;;;;;
2023/03/30 04:39:02;;;;;;;160.53;51.63;;;;;;;4.80;54.46;100144.44;5105491;28;20222;-49
2023/03/30 04:41:40;;;;;;;184.00;56.87;;;;;;;4.79;54.64;100150.44;5108038;28;20226;-49
2023/03/30 04:44:19;;;;;;;160.03;55.53;;;;;;;4.92;54.43;100142.78;5108641;28;20217;-50
2023/03/30 04:47:03;;;;;;;154.80;51.40;;;;;;;5.05;54.26;100154.00;5109044;28;20226;-50
2023/03/30 04:52:35;;;;;;;132.27;45.87;;;;;;;5.34;53.62;100161.78;5106296;28;20292;-49
2023/03/30 05:01:31;;;;;;;88.60;31.03;;;;;;;5.78;52.80;100165.28;5106293;28;20592;-49
2023/03/30 05:04:31;;;;;;;65.43;26.60;;;;;;;5.91;52.83;100165.34;5110065;28;20571;-48
2023/03/30 05:07:23;;;;;;;63.93;24.00;;;;;;;6.12;52.40;100171.34;5109780;28;20191;-50
2023/03/30 05:10:23;;;;;;;53.47;22.87;;;;;;;6.28;52.14;100171.34;5109806;28;20203;-49
2023/03/30 05:12:56;;;;;;;45.30;21.03;;;;;;;6.48;51.45;100174.75;5110164;28;20263;-47
2023/03/30 05:15:40;;;;;;;40.93;19.70;;;;;;;7.25;49.75;100176.22;5086932;28;20218;-48
2023/03/30 05:18:46;;;;;;;38.77;17.50;;;;;;;9.20;45.37;100178.00;5088657;28;20219;-49
2023/03/30 05:24:37;;;;;;;37.57;17.27;;;;;;;13.07;37.19;100189.16;5100782;28;20401;-48
2023/03/30 05:28:02;;;;;;;39.27;16.87;;;;;;;14.83;33.76;100195.78;5107383;28;20194;-49
2023/03/30 05:31:12;;;;;;;32.00;14.57;;;;;;;16.38;30.65;100208.13;5093037;28;20230;-49
2023/03/30 05:34:15;;;;;;;28.60;14.80;;;;;;;17.11;29.40;100204.16;5093384;28;20256;-48
2023/03/30 05:37:08;;;;;;;35.20;17.17;;;;;;;18.31;27.90;100208.97;5093239;28;20218;-49
2023/03/30 05:40:01;;;;;;;29.50;17.80;;;;;;;19.37;26.62;100213.16;5093448;28;20203;-49
2023/03/30 05:48:56;;;;;;;22.55;13.52;;;;;;;21.27;24.38;100210.94;5090992;28;20203;-52
2023/03/30 05:51:58;;;;;;;30.48;14.18;;;;;;;20.99;24.58;100209.09;5092435;28;20245;-53
2023/03/30 05:57:47;;;;;;;26.65;13.35;;;;;;;22.36;23.06;100202.16;5092317;28;20206;-54
2023/03/30 06:00:27;;;;;;;27.02;14.80;;;;;;;22.57;22.81;100208.69;5092276;28;20199;-54
2023/03/30 06:03:11;;;;;;;27.58;15.25;;;;;;;22.27;22.76;100206.28;5110234;28;20642;-53
2023/03/30 06:06:04;;;;;;;20.70;13.60;;;;;;;21.84;23.20;100213.47;5112970;28;20583;-53
2023/03/30 06:09:17;;;;;;;22.40;13.73;;;;;;;22.68;22.68;100215.91;5112972;28;20281;-54
2023/03/30 06:12:03;;;;;;;22.63;14.73;;;;;;;23.55;22.02;100213.38;5113001;28;20222;-54
2023/03/30 06:14:30;;;;;;;19.25;13.25;;;;;;;24.39;21.33;100221.34;5113038;28;20194;-53
2023/03/30 06:16:58;;;;;;;20.67;13.05;;;;;;;24.90;20.67;100219.22;5113307;28;20190;-54
2023/03/30 06:19:25;;;;;;;23.25;13.65;;;;;;;24.89;20.91;100229.94;5112969;28;20713;-51
2023/03/30 06:21:52;;;;;;;25.23;14.25;;;;;;;25.16;20.50;100216.38;5113035;28;20286;-51
2023/03/30 06:24:21;;;;;;;26.55;13.93;;;;;;;25.23;20.63;100217.59;5112854;28;20199;-51
2023/03/30 06:26:48;;;;;;;24.13;13.25;;;;;;;25.52;20.37;100231.22;5112788;28;20229;-52
2023/03/30 06:29:15;;;;;;;27.90;13.45;;;;;;;24.18;21.44;100239.66;5112711;28;20201;-52
2023/03/30 06:31:43;;;;;;;29.90;12.00;;;;;;;24.55;21.39;100237.81;5112923;28;20726;-52
2023/03/30 06:34:10;;;;;;;28.85;12.93;;;;;;;25.32;20.99;100243.44;5113072;28;20293;-49
2023/03/30 06:36:37;;;;;;;29.30;15.25;;;;;;;25.39;20.98;100236.69;5111886;28;20194;-49
2023/03/30 06:39:05;;;;;;;24.23;14.38;;;;;;;24.51;21.42;100236.34;5112790;28;20300;-50
2023/03/30 06:41:34;;;;;;;26.42;13.77;;;;;;;23.57;22.29;100223.88;5112556;28;20588;-50
2023/03/30 06:44:35;;;;;;;21.25;12.90;;;;;;;23.85;22.50;100234.19;5112834;28;20704;-49
2023/03/30 06:50:14;;;;;;;35.65;19.00;;;;;;;25.57;21.46;100229.91;5105675;28;20229;-56
2023/03/30 06:52:56;;;;;;;30.67;18.55;;;;;;;26.41;20.62;100236.41;5108354;28;20218;-53
2023/03/30 06:55:35;;;;;;;34.25;18.38;;;;;;;27.32;20.07;100215.25;5091033;28;20624;-52
2023/03/30 06:58:14;;;;;;;46.03;21.02;;;;;;;27.54;19.55;100234.72;5091123;28;20238;-52
2023/03/30 07:00:46;;;;;;;39.75;21.40;;;;;;;26.54;20.36;100238.88;5091092;28;20239;-53
2023/03/30 07:03:23;;;;;;;50.72;21.30;;;;;;;27.42;19.93;100242.81;5090932;28;20219;-52
2023/03/30 07:06:06;;;;;;;42.78;20.67;;;;;;;28.07;19.27;100237.97;5090733;28;20296;-50
2023/03/30 07:09:07;;;;;;;47.10;20.55;;;;;;;28.45;19.16;100238.00;5091182;28;20256;-52
2023/03/30 07:15:14;;;;;;;30.83;18.30;;;;;;;25.87;21.00;100225.75;5086247;28;20286;-52
2023/03/30 07:20:58;;;;;;;35.10;18.20;;;;;;;26.98;20.70;100227.13;5090269;28;20203;-52
2023/03/30 07:23:42;;;;;;;30.90;16.50;;;;;;;27.66;19.62;100229.16;5090862;28;20191;-51
2023/03/30 07:26:22;;;;;;;28.42;16.48;;;;;;;27.42;19.61;100225.97;5091382;28;20687;-52
2023/03/30 07:29:11;;;;;;;29.15;15.05;;;;;;;27.92;19.68;100223.34;5091140;28;20284;-49
2023/03/30 07:32:11;;;;;;;26.27;14.00;;;;;;;28.29;19.30;100221.72;5090879;28;20258;-50
2023/03/30 07:57:07;;;;;;;14.35;9.07;;;;;;;31.99;17.37;100231.28;5099888;28;20222;-50
2023/03/30 07:59:51;;;;;;;11.52;6.88;;;;;;;31.66;17.09;100224.13;5110957;28;20194;-50
2023/03/30 08:09:06;;;;;;;5.32;4.30;;;;;;;32.56;16.39;100226.00;5106788;28;20255;-52
2023/03/30 08:15:44;;;;;;;4.15;3.80;;;;;;;34.61;15.76;100233.97;5110026;28;20230;-50
2023/03/30 08:18:46;;;;;;;8.68;4.60;;;;;;;32.75;16.82;100224.81;5107522;28;20282;-53
2023/03/30 08:24:20;;;;;;;5.03;3.28;;;;;;;31.60;16.98;100217.56;5109792;28;20205;-53
2023/03/30 08:26:49;;;;;;;3.60;3.30;;;;;;;31.01;17.17;100205.84;5110599;28;20195;-50
2023/03/30 08:29:19;;;;;;;5.10;3.58;;;;;;;29.57;18.39;100202.44;5110417;28;20199;-51
2023/03/30 08:34:59;;;;;;;4.10;3.80;;;;;;;24.38;22.48;100193.09;5105640;28;20203;-51
2023/03/30 08:38:01;;;;;;;3.70;3.40;;;;;;;22.33;24.63;100184.72;5089918;28;20286;-50
2023/03/30 08:44:27;;;;;;;4.85;4.43;;;;;;;19.96;28.19;100165.09;5086623;28;20223;-50
2023/03/30 08:50:40;;;;;;;4.22;3.92;;;;;;;18.86;29.97;100151.81;5086359;28;20207;-49
2023/03/30 08:56:47;;;;;;;15.45;10.07;;;;;;;18.51;30.30;100145.72;5089110;28;20244;-49
2023/03/30 08:59:57;;;;;;;15.10;11.43;;;;;;;18.49;30.98;100142.34;5088147;28;20287;-49
2023/03/30 09:03:27;;;;;;;4.20;3.80;;;;;;;18.21;30.52;100137.63;5088267;28;20227;-51
2023/03/30 09:16:33;;;;;;;4.13;3.77;;;;;;;17.44;31.59;100121.25;5088678;28;20205;-48
2023/03/30 09:23:05;;;;;;;4.60;4.20;;;;;;;17.59;31.07;100114.44;5086912;28;20282;-48
2023/03/30 09:26:11;;;;;;;6.10;4.87;;;;;;;17.81;30.75;100102.00;5088591;28;20202;-50
2023/03/30 09:29:19;;;;;;;3.33;3.03;;;;;;;17.39;29.04;100104.88;5089411;28;20561;-49
2023/03/30 09:35:26;;;;;;;5.78;3.90;;;;;;;18.76;27.06;100109.38;5089522;28;20285;-50
2023/03/30 09:41:19;;;;;;;2.97;2.50;;;;;;;19.76;25.73;100096.88;5088632;28;20291;-49
2023/03/30 09:47:10;;;;;;;2.53;2.30;;;;;;;20.03;25.02;100092.66;5108520;28;20770;-50
2023/03/30 09:53:11;;;;;;;2.20;2.10;;;;;;;21.16;22.87;100096.34;5107937;28;20314;-51
2023/03/30 09:56:08;;;;;;;4.43;4.10;;;;;;;20.55;24.11;100084.28;5108518;28;20698;-49
2023/03/30 09:58:55;;;;;;;3.22;2.92;;;;;;;19.55;26.43;100083.13;5096410;28;20782;-52
2023/03/30 10:01:39;;;;;;;3.78;3.47;;;;;;;18.92;27.17;100075.22;5086932;28;20611;-50
2023/03/30 10:04:34;;;;;;;2.20;2.08;;;;;;;17.93;28.01;100067.25;5087389;28;20215;-52
2023/03/30 10:10:51;;;;;;;3.72;2.50;;;;;;;17.67;28.98;100042.28;5087312;28;20609;-48
2023/03/30 10:17:13;;;;;;;4.33;2.27;;;;;;;17.37;30.01;100043.75;5092454;28;20724;-48
2023/03/30 10:26:49;;;;;;;4.67;3.00;;;;;;;16.64;31.56;100026.22;5092774;28;20276;-49
2023/03/30 10:29:27;;;;;;;2.90;2.70;;;;;;;16.76;31.44;100014.31;5091837;28;20199;-50
2023/03/30 10:38:36;;;;;;;3.20;2.27;;;;;;;17.45;29.96;100022.38;5090595;28;20637;-49
2023/03/30 10:41:35;;;;;;;3.13;2.83;;;;;;;17.33;30.81;100016.81;5084717;28;20198;-50
2023/03/30 10:44:45;;;;;;;5.50;2.80;;;;;;;17.46;29.90;100011.81;5092290;28;20212;-51
2023/03/30 10:47:54;;;;;;;3.10;2.33;;;;;;;17.46;29.53;100016.22;5091679;28;20217;-51
2023/03/30 10:51:05;;;;;;;2.20;2.00;;;;;;;17.45;29.35;100004.88;5091712;28;20223;-50
2023/03/30 10:53:51;;;;;;;2.43;2.20;;;;;;;17.15;29.85;99998.50;5091677;28;20223;-50
2023/03/30 10:56:30;;;;;;;2.87;2.60;;;;;;;17.24;29.86;99996.28;5091894;28;20283;-50
2023/03/30 11:06:28;;;;;;;2.27;2.07;;;;;;;17.41;29.77;99977.91;5111813;28;20198;-51
2023/03/30 11:09:08;;;;;;;2.10;2.00;;;;;;;17.49;30.33;99974.06;5109983;28;20194;-51
2023/03/30 11:11:56;;;;;;;3.53;2.17;;;;;;;17.37;31.34;99965.88;5102504;28;20199;-52
2023/03/30 11:14:49;;;;;;;2.40;2.20;;;;;;;17.21;31.45;99957.06;5106417;28;20252;-50
2023/03/30 11:17:29;;;;;;;2.20;2.10;;;;;;;17.11;31.94;99950.56;5105530;28;20281;-51
2023/03/30 11:23:20;;;;;;;2.30;2.20;;;;;;;16.86;31.98;99926.44;5104802;28;20285;-52
2023/03/30 11:26:08;;;;;;;2.17;2.00;;;;;;;16.88;32.68;99935.09;5107001;28;20731;-49
2023/03/30 11:29:10;;;;;;;2.90;2.00;;;;;;;16.89;31.96;99921.91;5103426;28;20285;-48
2023/03/30 11:32:09;;;;;;;2.40;2.30;;;;;;;16.90;32.33;99917.50;5105338;28;20190;-49
2023/03/30 11:35:07;;;;;;;2.33;2.23;;;;;;;16.98;31.35;99905.72;5105184;28;20202;-49
2023/03/30 11:37:59;;;;;;;4.60;1.60;;;;;;;17.02;28.84;99901.19;5104555;28;20616;-49
2023/03/30 11:40:42;;;;;;;1.43;1.43;;;;;;;17.09;28.73;99912.22;5106431;28;20236;-50
2023/03/30 11:43:27;;;;;;;1.90;1.80;;;;;;;17.16;28.29;99914.44;5107070;28;20198;-48
2023/03/30 11:46:17;;;;;;;1.60;1.50;;;;;;;16.99;28.53;99909.19;5104297;28;20198;-48
2023/03/30 11:49:18;;;;;;;1.50;1.40;;;;;;;16.99;28.48;99910.03;5106167;28;20317;-48
2023/03/30 11:52:12;;;;;;;3.67;1.60;;;;;;;16.95;29.35;99905.00;5105854;28;20744;-49
2023/03/30 11:55:19;;;;;;;1.90;1.80;;;;;;;16.85;29.07;99873.16;5105333;28;20285;-49
2023/03/30 11:57:59;;;;;;;4.07;1.90;;;;;;;17.01;28.80;99887.22;5105717;28;20198;-50
2023/03/30 12:01:02;;;;;;;6.27;5.67;;;;;;;16.93;28.67;99896.41;5105932;28;20193;-51
2023/03/30 12:03:47;;;;;;;2.43;2.23;;;;;;;16.91;28.52;99888.59;5109502;28;20202;-51
2023/03/30 12:06:37;;;;;;;1.97;1.87;;;;;;;16.68;28.58;99886.25;5104410;28;20752;-49
2023/03/30 12:09:42;;;;;;;3.73;1.80;;;;;;;16.72;28.57;99877.28;5106156;28;20197;-48
2023/03/30 12:12:27;;;;;;;1.70;1.30;;;;;;;16.63;28.84;99877.72;5108123;28;20304;-49
2023/03/30 12:15:39;;;;;;;1.63;1.53;;;;;;;16.51;29.67;99846.84;5109445;28;20190;-49
2023/03/30 12:18:31;;;;;;;2.00;1.90;;;;;;;16.66;30.97;99856.63;5106908;28;20190;-50
2023/03/30 12:21:32;;;;;;;2.73;2.53;;;;;;;16.64;30.15;99859.31;5104829;28;20193;-49
2023/03/30 12:24:25;;;;;;;2.60;2.40;;;;;;;16.76;29.59;99862.25;5109403;28;20236;-49
2023/03/30 12:27:10;;;;;;;4.27;3.20;;;;;;;16.80;30.09;99855.97;5108974;28;20194;-50
2023/03/30 12:29:52;;;;;;;2.07;1.97;;;;;;;16.81;29.93;99841.94;5103909;28;20666;-49
2023/03/30 12:32:46;;;;;;;3.07;2.00;;;;;;;16.83;30.61;99840.06;5104063;28;20221;-48
2023/03/30 12:36:03;;;;;;;2.33;2.10;;;;;;;16.78;31.08;99835.06;5102587;28;20285;-49
2023/03/30 12:39:04;;;;;;;5.83;2.13;;;;;;;16.88;30.93;99827.59;5088300;28;20278;-48
2023/03/30 12:42:15;;;;;;;1.83;1.73;;;;;;;16.89;31.58;99824.03;5109227;28;20205;-54
2023/03/30 12:48:57;;;;;;;1.83;1.70;;;;;;;16.75;32.33;99819.47;5101468;28;20205;-51
2023/03/30 12:52:17;;;;;;;1.57;1.47;;;;;;;16.79;32.05;99807.06;5106921;28;20751;-53
2023/03/30 12:55:17;;;;;;;7.13;6.33;;;;;;;16.89;31.51;99821.44;5109002;28;20746;-51
2023/03/30 12:58:19;;;;;;;3.33;3.03;;;;;;;16.98;31.84;99811.31;5107951;28;20241;-52
2023/03/30 13:01:46;;;;;;;2.90;2.70;;;;;;;17.14;32.01;99802.69;5109044;28;20311;-51
2023/03/30 13:04:30;;;;;;;40.17;24.83;;;;;;;17.10;32.13;99799.34;5068751;28;20302;-52
2023/03/30 13:07:33;;;;;;;4.33;3.90;;;;;;;17.11;32.33;99789.72;5067337;28;20226;-52
2023/03/30 13:14:07;;;;;;;1.53;1.43;;;;;;;17.19;32.37;99784.91;5067600;28;20232;-52
2023/03/30 13:24:09;;;;;;;11.10;7.47;;;;;;;17.02;33.47;99764.81;5068125;28;20227;-49
2023/03/30 13:27:16;;;;;;;;;;;;;;;;;;;;;
2023/03/30 13:29:53;;;;;;;3.20;3.00;;;;;;;16.99;34.15;99749.22;5068174;28;20204;-52
2023/03/30 13:32:37;;;;;;;3.30;3.00;;;;;;;17.04;34.22;99755.09;5068969;28;20264;-51
2023/03/30 13:35:57;;;;;;;5.03;2.60;;;;;;;16.92;34.42;99747.88;5067941;28;20282;-53
2023/03/30 13:38:46;;;;;;;4.53;2.83;;;;;;;16.93;34.08;99744.31;5069023;28;20200;-52
2023/03/30 13:41:47;;;;;;;1.97;1.87;;;;;;;16.97;34.39;99735.34;5069101;28;20605;-52
2023/03/30 13:44:54;;;;;;;;;;;;;;;;;;;;;
2023/03/30 13:47:41;;;;;;;4.03;1.93;;;;;;;16.99;34.64;99717.75;5072259;28;20195;-51
2023/03/30 13:50:50;;;;;;;3.30;1.80;;;;;;;17.10;34.09;99715.44;5072954;28;20195;-52
2023/03/30 13:53:20;;;;;;;3.63;2.03;;;;;;;17.14;34.08;99709.09;5072442;28;20215;-51
2023/03/30 13:55:53;;;;;;;4.97;2.17;;;;;;;17.00;34.68;99704.59;5071995;28;20222;-52
2023/03/30 14:01:50;;;;;;;3.70;2.40;;;;;;;16.85;34.88;99707.97;5057806;28;20239;-47
2023/03/30 14:04:29;;;;;;;2.43;2.23;;;;;;;16.80;35.09;99706.53;5092527;28;20241;-50
2023/03/30 14:10:08;;;;;;;3.03;2.60;;;;;;;16.82;35.18;99702.03;5105181;28;20217;-50
2023/03/30 14:12:38;;;;;;;2.93;2.73;;;;;;;16.78;35.44;99693.50;5105514;28;20732;-49
2023/03/30 14:15:56;;;;;;;;;;;;;;;;;;;;;
2023/03/30 14:18:57;;;;;;;3.43;2.63;;;;;;;16.73;35.23;99692.03;5107216;28;20191;-52
2023/03/30 14:21:24;;;;;;;3.00;2.80;;;;;;;16.64;36.10;99681.09;5107374;28;20222;-51
2023/03/30 14:24:22;;;;;;;3.47;2.40;;;;;;;16.58;35.83;99660.44;5112659;28;20186;-52
2023/03/30 14:29:57;;;;;;;2.97;1.97;;;;;;;16.68;35.49;99684.41;5109748;28;20217;-52
2023/03/30 14:32:32;;;;;;;4.67;2.40;;;;;;;16.59;35.93;99683.06;5112316;28;20201;-51
2023/03/30 14:35:14;;;;;;;5.60;2.20;;;;;;;16.54;35.93;99669.34;5112680;28;20575;-52
2023/03/30 14:37:59;;;;;;;2.90;2.70;;;;;;;16.61;36.49;99664.63;5112427;28;20251;-51
2023/03/30 14:40:26;;;;;;;2.63;2.43;;;;;;;16.53;36.29;99658.94;5111673;28;20198;-50
2023/03/30 14:42:59;;;;;;;2.80;2.60;;;;;;;16.59;35.67;99661.28;5112451;28;20195;-51
2023/03/30 14:45:39;;;;;;;5.37;3.13;;;;;;;16.61;35.44;99664.63;5111914;28;20259;-51
2023/03/30 14:48:33;;;;;;;2.90;2.40;;;;;;;16.65;35.42;99663.59;5112200;28;20194;-52
2023/03/30 14:51:22;;;;;;;3.20;2.37;;;;;;;16.73;35.72;99663.19;5112354;28;20199;-51
2023/03/30 14:54:12;;;;;;;12.80;3.57;;;;;;;16.78;35.50;99655.97;5109683;28;20306;-51
2023/03/30 14:57:07;;;;;;;10.40;3.10;;;;;;;16.77;35.28;99656.88;5110980;28;20237;-48
2023/03/30 15:03:03;;;;;;;6.50;2.50;;;;;;;16.79;34.88;99663.75;5089096;28;20234;-49
2023/03/30 15:05:51;;;;;;;3.50;1.83;;;;;;;16.83;34.48;99672.28;5090902;28;20215;-49
2023/03/30 15:08:38;;;;;;;2.87;2.43;;;;;;;16.83;34.78;99667.88;5090512;28;20223;-49
2023/03/30 15:11:42;;;;;;;2.73;2.53;;;;;;;16.84;34.88;99666.13;5111659;28;20690;-49
2023/03/30 15:14:28;;;;;;;5.30;2.57;;;;;;;16.84;34.81;99666.13;5109614;28;20218;-48
2023/03/30 15:17:27;;;;;;;3.63;2.13;;;;;;;16.83;35.93;99667.03;5111916;28;20230;-50
2023/03/30 15:20:33;;;;;;;3.50;3.20;;;;;;;16.87;36.04;99669.44;5108861;28;20199;-47
2023/03/30 15:23:39;;;;;;;6.00;5.00;;;;;;;16.88;35.80;99673.75;5090872;28;20739;-49
2023/03/30 15:26:38;;;;;;;4.70;4.30;;;;;;;16.84;36.00;99666.13;5089709;28;20718;-49
2023/03/30 15:32:28;;;;;;;4.37;3.20;;;;;;;16.75;36.25;99664.81;5085813;28;20230;-49
2023/03/30 15:48:31;;;;;;;6.80;5.53;;;;;;;16.04;36.48;99678.84;5062880;28;20211;-48
2023/03/30 15:58:20;;;;;;;13.50;9.63;;;;;;;15.49;37.48;99671.81;5127647;28;20711;-50
2023/03/30 16:01:05;;;;;;;16.70;8.10;;;;;;;15.38;37.98;99666.25;5126768;28;20197;-48
2023/03/30 16:04:00;;;;;;;9.70;6.77;;;;;;;15.30;38.04;99660.53;5126999;28;20229;-48
2023/03/30 16:10:05;;;;;;;13.70;7.00;;;;;;;15.18;37.82;99661.94;5126507;28;20209;-48
2023/03/30 16:16:24;;;;;;;;;;;;;;;;;;;;;
2023/03/30 16:19:22;;;;;;;11.07;7.73;;;;;;;14.98;38.25;99650.69;5126753;28;20588;-47
2023/03/30 16:22:08;;;;;;;11.47;6.30;;;;;;;14.97;38.28;99652.44;5125153;28;20256;-47
2023/03/30 16:25:24;;;;;;;;;;;;;;;;;;;;;
2023/03/30 16:34:33;;;;;;;11.73;6.20;;;;;;;14.69;38.94;99636.25;5126575;28;20291;-49
2023/03/30 16:47:46;;;;;;;;;;;;;;;;;;;;;
2023/03/30 16:50:50;;;;;;;13.33;8.43;;;;;;;14.44;39.76;99619.06;5148366;27;20200;-52
2023/03/30 16:53:19;;;;;;;13.97;7.50;;;;;;;14.40;39.54;99614.88;5142960;27;20239;-50
2023/03/30 16:59:00;;;;;;;8.03;6.03;;;;;;;14.31;39.83;99624.84;5129545;27;20281;-49
2023/03/30 17:01:34;;;;;;;10.83;7.93;;;;;;;14.22;39.97;99620.00;5142024;27;20221;-50
2023/03/30 17:04:21;;;;;;;10.50;7.60;;;;;;;14.08;40.54;99620.56;5123993;28;20704;-50
2023/03/30 17:06:56;;;;;;;12.77;7.87;;;;;;;13.89;41.33;99622.22;5139547;27;20217;-49
2023/03/30 17:09:42;;;;;;;11.53;7.20;;;;;;;13.79;41.51;99608.69;5147207;27;20299;-50
2023/03/30 17:12:13;;;;;;;8.73;7.37;;;;;;;13.84;41.49;99611.13;5146511;27;20217;-48
2023/03/30 17:14:46;;;;;;;9.13;7.03;;;;;;;13.87;40.95;99608.41;5146719;27;20334;-52
2023/03/30 17:17:17;;;;;;;8.70;6.20;;;;;;;13.89;41.30;99607.41;5146248;27;20269;-49
2023/03/30 17:20:04;;;;;;;8.93;5.97;;;;;;;13.88;41.26;99613.56;5145558;27;20704;-50
2023/03/30 17:22:36;;;;;;;6.10;5.47;;;;;;;13.98;41.11;99614.03;5146603;27;20221;-49
2023/03/30 17:25:25;;;;;;;5.80;4.73;;;;;;;13.93;41.19;99613.34;5147195;27;20604;-51
2023/03/30 17:28:10;;;;;;;7.50;5.60;;;;;;;14.06;41.54;99610.19;5143917;27;20222;-49
2023/03/30 17:31:02;;;;;;;8.63;5.40;;;;;;;13.94;41.07;99610.69;5145508;27;20213;-49
2023/03/30 17:33:47;;;;;;;6.40;5.43;;;;;;;13.85;41.41;99618.91;5146073;27;20214;-50
2023/03/30 17:39:32;;;;;;;7.30;5.43;;;;;;;14.00;41.73;99620.88;5145748;27;20270;-52
2023/03/30 17:42:17;;;;;;;6.37;5.53;;;;;;;14.04;41.60;99626.81;5145467;27;20213;-49
2023/03/30 17:45:04;;;;;;;5.60;5.03;;;;;;;13.98;41.76;99634.91;5142384;27;20319;-49
2023/03/30 17:47:57;;;;;;;9.57;6.60;;;;;;;13.95;41.54;99637.63;5144751;27;20278;-49
2023/03/30 17:50:38;;;;;;;11.53;6.80;;;;;;;13.96;41.59;99639.34;5146175;27;20209;-48
2023/03/30 17:53:19;;;;;;;11.67;7.30;;;;;;;13.91;41.72;99633.44;5143332;27;20282;-49
2023/03/30 17:55:53;;;;;;;14.10;7.00;;;;;;;13.98;41.82;99633.16;5149296;27;20191;-50
2023/03/30 17:58:31;;;;;;;12.73;7.27;;;;;;;13.95;42.03;99637.63;5138196;27;20197;-48
2023/03/30 18:01:03;;;;;;;10.20;7.17;;;;;;;14.02;41.78;99639.94;5138328;27;20193;-47
2023/03/30 18:03:43;;;;;;;14.30;8.03;;;;;;;14.02;41.83;99641.69;5118297;27;20319;-48
2023/03/30 18:06:39;;;;;;;;;;;;;;;;;;;;;
2023/03/30 18:09:43;;;;;;;13.73;8.60;;;;;;;13.96;42.18;99644.56;5127650;27;20206;-47
2023/03/30 18:12:20;;;;;;;15.93;8.70;;;;;;;14.01;42.24;99666.09;5108965;28;20205;-46
2023/03/30 18:15:14;;;;;;;21.77;9.67;;;;;;;14.04;44.19;99653.78;5112448;28;20219;-48